sensor_id;sensor_type;location;lat;lon;timestamp;P1;durP1;ratioP1;P2;durP2;ratioP2
7575;SDS011;3829;50.798;4.358;2023-08-17T00:00:24;5.40;;;2.30;;
7575;SDS011;3829;50.798;4.358;2023-08-17T00:02:49;2.40;;;2.07;;
7575;SDS011;3829;50.798;4.358;2023-08-17T00:05:15;5.60;;;2.43;;
7575;SDS011;3829;50.798;4.358;2023-08-17T00:07:41;6.03;;;2.10;;
7575;SDS011;3829;50.798;4.358;2023-08-17T00:10:06;6.50;;;2.40;;
7575;SDS011;3829;50.798;4.358;2023-08-17T00:12:32;3.40;;;2.10;;
7575;SDS011;3829;50.798;4.358;2023-08-17T00:14:58;4.00;;;2.50;;
7575;SDS011;3829;50.798;4.358;2023-08-17T00:17:23;7.30;;;2.37;;
7575;SDS011;3829;50.798;4.358;2023-08-17T00:19:49;2.80;;;2.27;;
7575;SDS011;3829;50.798;4.358;2023-08-17T00:22:15;3.80;;;2.07;;
7575;SDS011;3829;50.798;4.358;2023-08-17T00:24:41;2.87;;;2.23;;
7575;SDS011;3829;50.798;4.358;2023-08-17T00:27:09;4.33;;;2.53;;
7575;SDS011;3829;50.798;4.358;2023-08-17T00:29:35;6.23;;;2.70;;
7575;SDS011;3829;50.798;4.358;2023-08-17T00:32:00;4.57;;;2.50;;
7575;SDS011;3829;50.798;4.358;2023-08-17T00:34:27;5.40;;;2.37;;
7575;SDS011;3829;50.798;4.358;2023-08-17T00:36:52;5.97;;;2.63;;
7575;SDS011;3829;50.798;4.358;2023-08-17T00:39:18;4.50;;;3.63;;
7575;SDS011;3829;50.798;4.358;2023-08-17T00:41:44;4.63;;;2.20;;
7575;SDS011;3829;50.798;4.358;2023-08-17T00:44:10;4.60;;;2.43;;
7575;SDS011;3829;50.798;4.358;2023-08-17T00:46:36;4.50;;;2.50;;
7575;SDS011;3829;50.798;4.358;2023-08-17T00:49:02;3.57;;;2.30;;
7575;SDS011;3829;50.798;4.358;2023-08-17T00:51:28;3.90;;;2.50;;
7575;SDS011;3829;50.798;4.358;2023-08-17T00:53:54;3.90;;;2.40;;
7575;SDS011;3829;50.798;4.358;2023-08-17T00:56:24;3.40;;;2.50;;
7575;SDS011;3829;50.798;4.358;2023-08-17T00:58:51;4.83;;;2.70;;
7575;SDS011;3829;50.798;4.358;2023-08-17T01:01:17;4.47;;;2.57;;
7575;SDS011;3829;50.798;4.358;2023-08-17T01:03:44;4.00;;;2.40;;
7575;SDS011;3829;50.798;4.358;2023-08-17T01:06:10;2.60;;;2.37;;
7575;SDS011;3829;50.798;4.358;2023-08-17T01:08:37;5.67;;;2.80;;
7575;SDS011;3829;50.798;4.358;2023-08-17T01:11:13;7.03;;;3.30;;
7575;SDS011;3829;50.798;4.358;2023-08-17T01:14:02;2.83;;;2.53;;
7575;SDS011;3829;50.798;4.358;2023-08-17T01:16:33;3.83;;;2.80;;
7575;SDS011;3829;50.798;4.358;2023-08-17T01:19:06;5.40;;;3.00;;
7575;SDS011;3829;50.798;4.358;2023-08-17T01:21:41;4.83;;;2.90;;
7575;SDS011;3829;50.798;4.358;2023-08-17T01:24:12;7.10;;;2.80;;
7575;SDS011;3829;50.798;4.358;2023-08-17T01:26:37;4.03;;;2.87;;
7575;SDS011;3829;50.798;4.358;2023-08-17T01:29:03;6.77;;;2.90;;
7575;SDS011;3829;50.798;4.358;2023-08-17T01:31:31;3.27;;;2.70;;
7575;SDS011;3829;50.798;4.358;2023-08-17T01:34:08;5.67;;;3.00;;
7575;SDS011;3829;50.798;4.358;2023-08-17T01:36:43;4.40;;;3.20;;
7575;SDS011;3829;50.798;4.358;2023-08-17T01:39:15;6.47;;;2.70;;
7575;SDS011;3829;50.798;4.358;2023-08-17T01:41:42;4.17;;;3.30;;
7575;SDS011;3829;50.798;4.358;2023-08-17T01:44:10;7.13;;;3.30;;
7575;SDS011;3829;50.798;4.358;2023-08-17T01:46:36;6.23;;;3.33;;
7575;SDS011;3829;50.798;4.358;2023-08-17T01:49:02;3.33;;;3.03;;
7575;SDS011;3829;50.798;4.358;2023-08-17T01:51:28;3.50;;;2.97;;
7575;SDS011;3829;50.798;4.358;2023-08-17T01:53:54;5.60;;;3.03;;
7575;SDS011;3829;50.798;4.358;2023-08-17T01:56:19;6.00;;;2.93;;
7575;SDS011;3829;50.798;4.358;2023-08-17T01:58:45;6.60;;;3.53;;
7575;SDS011;3829;50.798;4.358;2023-08-17T02:01:10;3.73;;;3.30;;
7575;SDS011;3829;50.798;4.358;2023-08-17T02:03:36;6.37;;;3.33;;
7575;SDS011;3829;50.798;4.358;2023-08-17T02:06:01;4.77;;;3.00;;
7575;SDS011;3829;50.798;4.358;2023-08-17T02:08:27;4.80;;;3.27;;
7575;SDS011;3829;50.798;4.358;2023-08-17T02:10:53;7.63;;;3.57;;
7575;SDS011;3829;50.798;4.358;2023-08-17T02:13:18;6.47;;;3.23;;
7575;SDS011;3829;50.798;4.358;2023-08-17T02:15:44;4.03;;;3.13;;
7575;SDS011;3829;50.798;4.358;2023-08-17T02:18:11;4.30;;;3.60;;
7575;SDS011;3829;50.798;4.358;2023-08-17T02:20:37;5.93;;;3.33;;
7575;SDS011;3829;50.798;4.358;2023-08-17T02:23:03;4.70;;;3.20;;
7575;SDS011;3829;50.798;4.358;2023-08-17T02:25:28;5.97;;;2.83;;
7575;SDS011;3829;50.798;4.358;2023-08-17T02:28:00;5.30;;;3.20;;
7575;SDS011;3829;50.798;4.358;2023-08-17T02:30:28;3.73;;;3.20;;
7575;SDS011;3829;50.798;4.358;2023-08-17T02:32:54;6.03;;;3.20;;
7575;SDS011;3829;50.798;4.358;2023-08-17T02:35:20;6.53;;;3.03;;
7575;SDS011;3829;50.798;4.358;2023-08-17T02:37:45;5.90;;;3.20;;
7575;SDS011;3829;50.798;4.358;2023-08-17T02:40:11;4.30;;;3.20;;
7575;SDS011;3829;50.798;4.358;2023-08-17T02:42:37;3.53;;;2.87;;
7575;SDS011;3829;50.798;4.358;2023-08-17T02:45:04;4.07;;;2.90;;
7575;SDS011;3829;50.798;4.358;2023-08-17T02:47:31;5.33;;;2.80;;
7575;SDS011;3829;50.798;4.358;2023-08-17T02:49:56;4.73;;;2.53;;
7575;SDS011;3829;50.798;4.358;2023-08-17T02:52:22;6.47;;;3.37;;
7575;SDS011;3829;50.798;4.358;2023-08-17T02:54:48;5.43;;;3.23;;
7575;SDS011;3829;50.798;4.358;2023-08-17T02:57:13;4.67;;;3.00;;
7575;SDS011;3829;50.798;4.358;2023-08-17T02:59:39;6.23;;;2.93;;
7575;SDS011;3829;50.798;4.358;2023-08-17T03:02:04;5.63;;;2.97;;
7575;SDS011;3829;50.798;4.358;2023-08-17T03:04:30;6.27;;;3.33;;
7575;SDS011;3829;50.798;4.358;2023-08-17T03:06:55;4.03;;;3.13;;
7575;SDS011;3829;50.798;4.358;2023-08-17T03:09:21;3.43;;;2.80;;
7575;SDS011;3829;50.798;4.358;2023-08-17T03:11:46;6.47;;;3.50;;
7575;SDS011;3829;50.798;4.358;2023-08-17T03:14:12;6.23;;;2.67;;
7575;SDS011;3829;50.798;4.358;2023-08-17T03:16:38;5.97;;;3.30;;
7575;SDS011;3829;50.798;4.358;2023-08-17T03:19:03;5.33;;;3.53;;
7575;SDS011;3829;50.798;4.358;2023-08-17T03:21:29;6.13;;;3.20;;
7575;SDS011;3829;50.798;4.358;2023-08-17T03:23:55;5.37;;;3.10;;
7575;SDS011;3829;50.798;4.358;2023-08-17T03:26:20;5.73;;;3.10;;
7575;SDS011;3829;50.798;4.358;2023-08-17T03:28:46;3.37;;;2.80;;
7575;SDS011;3829;50.798;4.358;2023-08-17T03:31:12;5.67;;;3.40;;
7575;SDS011;3829;50.798;4.358;2023-08-17T03:33:37;6.83;;;3.70;;
7575;SDS011;3829;50.798;4.358;2023-08-17T03:36:03;6.50;;;2.87;;
7575;SDS011;3829;50.798;4.358;2023-08-17T03:38:28;8.60;;;3.30;;
7575;SDS011;3829;50.798;4.358;2023-08-17T03:40:54;7.20;;;3.33;;
7575;SDS011;3829;50.798;4.358;2023-08-17T03:43:20;7.53;;;3.70;;
7575;SDS011;3829;50.798;4.358;2023-08-17T03:45:45;8.03;;;3.10;;
7575;SDS011;3829;50.798;4.358;2023-08-17T03:48:11;5.37;;;3.30;;
7575;SDS011;3829;50.798;4.358;2023-08-17T03:50:37;5.87;;;2.73;;
7575;SDS011;3829;50.798;4.358;2023-08-17T03:53:03;4.20;;;3.17;;
7575;SDS011;3829;50.798;4.358;2023-08-17T03:55:29;7.70;;;3.20;;
7575;SDS011;3829;50.798;4.358;2023-08-17T03:57:54;4.93;;;2.73;;
7575;SDS011;3829;50.798;4.358;2023-08-17T04:00:20;4.50;;;3.50;;
7575;SDS011;3829;50.798;4.358;2023-08-17T04:02:46;8.57;;;3.60;;
7575;SDS011;3829;50.798;4.358;2023-08-17T04:05:11;5.87;;;3.13;;
7575;SDS011;3829;50.798;4.358;2023-08-17T04:07:38;5.63;;;3.23;;
7575;SDS011;3829;50.798;4.358;2023-08-17T04:10:05;6.43;;;3.17;;
7575;SDS011;3829;50.798;4.358;2023-08-17T04:12:31;7.43;;;3.30;;
7575;SDS011;3829;50.798;4.358;2023-08-17T04:14:56;5.63;;;3.40;;
7575;SDS011;3829;50.798;4.358;2023-08-17T04:17:22;8.27;;;3.70;;
7575;SDS011;3829;50.798;4.358;2023-08-17T04:19:48;4.93;;;3.27;;
7575;SDS011;3829;50.798;4.358;2023-08-17T04:22:13;6.57;;;3.13;;
7575;SDS011;3829;50.798;4.358;2023-08-17T04:24:39;6.97;;;3.40;;
7575;SDS011;3829;50.798;4.358;2023-08-17T04:27:04;6.73;;;3.50;;
7575;SDS011;3829;50.798;4.358;2023-08-17T04:29:30;6.30;;;3.60;;
7575;SDS011;3829;50.798;4.358;2023-08-17T04:31:56;6.23;;;3.30;;
7575;SDS011;3829;50.798;4.358;2023-08-17T04:34:22;8.77;;;4.07;;
7575;SDS011;3829;50.798;4.358;2023-08-17T04:36:48;4.10;;;3.30;;
7575;SDS011;3829;50.798;4.358;2023-08-17T04:39:14;8.80;;;3.67;;
7575;SDS011;3829;50.798;4.358;2023-08-17T04:41:40;8.37;;;3.83;;
7575;SDS011;3829;50.798;4.358;2023-08-17T04:44:05;5.37;;;3.30;;
7575;SDS011;3829;50.798;4.358;2023-08-17T04:46:31;6.70;;;3.43;;
7575;SDS011;3829;50.798;4.358;2023-08-17T04:48:56;5.57;;;3.10;;
7575;SDS011;3829;50.798;4.358;2023-08-17T04:51:22;6.07;;;3.47;;
7575;SDS011;3829;50.798;4.358;2023-08-17T04:53:48;9.70;;;3.63;;
7575;SDS011;3829;50.798;4.358;2023-08-17T04:56:13;7.37;;;3.37;;
7575;SDS011;3829;50.798;4.358;2023-08-17T04:58:39;4.60;;;2.93;;
7575;SDS011;3829;50.798;4.358;2023-08-17T05:01:04;4.60;;;3.90;;
7575;SDS011;3829;50.798;4.358;2023-08-17T05:03:30;6.47;;;3.60;;
7575;SDS011;3829;50.798;4.358;2023-08-17T05:05:56;7.80;;;3.43;;
7575;SDS011;3829;50.798;4.358;2023-08-17T05:08:24;5.57;;;3.10;;
7575;SDS011;3829;50.798;4.358;2023-08-17T05:10:50;6.43;;;3.37;;
7575;SDS011;3829;50.798;4.358;2023-08-17T05:13:15;4.77;;;2.90;;
7575;SDS011;3829;50.798;4.358;2023-08-17T05:15:41;6.17;;;3.37;;
7575;SDS011;3829;50.798;4.358;2023-08-17T05:18:07;8.93;;;3.37;;
7575;SDS011;3829;50.798;4.358;2023-08-17T05:20:33;6.93;;;3.10;;
7575;SDS011;3829;50.798;4.358;2023-08-17T05:22:58;5.10;;;3.50;;
7575;SDS011;3829;50.798;4.358;2023-08-17T05:25:24;4.60;;;3.20;;
7575;SDS011;3829;50.798;4.358;2023-08-17T05:27:51;8.13;;;3.57;;
7575;SDS011;3829;50.798;4.358;2023-08-17T05:30:17;7.10;;;3.20;;
7575;SDS011;3829;50.798;4.358;2023-08-17T05:32:42;7.07;;;3.67;;
7575;SDS011;3829;50.798;4.358;2023-08-17T05:35:08;9.83;;;3.90;;
7575;SDS011;3829;50.798;4.358;2023-08-17T05:37:34;8.37;;;3.80;;
7575;SDS011;3829;50.798;4.358;2023-08-17T05:40:00;7.77;;;3.37;;
7575;SDS011;3829;50.798;4.358;2023-08-17T05:42:25;5.80;;;3.27;;
7575;SDS011;3829;50.798;4.358;2023-08-17T05:44:51;8.33;;;3.60;;
7575;SDS011;3829;50.798;4.358;2023-08-17T05:47:16;8.60;;;3.63;;
7575;SDS011;3829;50.798;4.358;2023-08-17T05:49:44;5.70;;;3.47;;
7575;SDS011;3829;50.798;4.358;2023-08-17T05:52:10;4.87;;;3.10;;
7575;SDS011;3829;50.798;4.358;2023-08-17T05:54:35;6.00;;;3.03;;
7575;SDS011;3829;50.798;4.358;2023-08-17T05:57:01;7.27;;;3.40;;
7575;SDS011;3829;50.798;4.358;2023-08-17T05:59:28;3.90;;;3.27;;
7575;SDS011;3829;50.798;4.358;2023-08-17T06:01:53;7.50;;;3.73;;
7575;SDS011;3829;50.798;4.358;2023-08-17T06:04:19;4.60;;;3.43;;
7575;SDS011;3829;50.798;4.358;2023-08-17T06:06:45;8.17;;;3.53;;
7575;SDS011;3829;50.798;4.358;2023-08-17T06:09:11;7.97;;;3.67;;
7575;SDS011;3829;50.798;4.358;2023-08-17T06:11:37;5.40;;;3.40;;
7575;SDS011;3829;50.798;4.358;2023-08-17T06:14:03;5.20;;;3.47;;
7575;SDS011;3829;50.798;4.358;2023-08-17T06:16:29;7.50;;;4.00;;
7575;SDS011;3829;50.798;4.358;2023-08-17T06:18:54;13.07;;;3.80;;
7575;SDS011;3829;50.798;4.358;2023-08-17T06:21:20;8.03;;;3.80;;
7575;SDS011;3829;50.798;4.358;2023-08-17T06:23:46;10.17;;;3.70;;
7575;SDS011;3829;50.798;4.358;2023-08-17T06:26:12;6.63;;;3.80;;
7575;SDS011;3829;50.798;4.358;2023-08-17T06:28:37;7.47;;;3.47;;
7575;SDS011;3829;50.798;4.358;2023-08-17T06:31:03;7.10;;;4.13;;
7575;SDS011;3829;50.798;4.358;2023-08-17T06:33:29;7.37;;;3.50;;
7575;SDS011;3829;50.798;4.358;2023-08-17T06:35:54;6.63;;;3.30;;
7575;SDS011;3829;50.798;4.358;2023-08-17T06:38:20;7.33;;;3.73;;
7575;SDS011;3829;50.798;4.358;2023-08-17T06:40:45;5.03;;;3.57;;
7575;SDS011;3829;50.798;4.358;2023-08-17T06:43:11;8.23;;;3.97;;
7575;SDS011;3829;50.798;4.358;2023-08-17T06:45:37;9.30;;;3.93;;
7575;SDS011;3829;50.798;4.358;2023-08-17T06:48:02;9.13;;;4.10;;
7575;SDS011;3829;50.798;4.358;2023-08-17T06:50:28;8.47;;;3.67;;
7575;SDS011;3829;50.798;4.358;2023-08-17T06:52:54;11.67;;;3.97;;
7575;SDS011;3829;50.798;4.358;2023-08-17T06:55:19;8.13;;;4.33;;
7575;SDS011;3829;50.798;4.358;2023-08-17T06:57:45;8.20;;;4.73;;
7575;SDS011;3829;50.798;4.358;2023-08-17T07:00:12;8.37;;;4.53;;
7575;SDS011;3829;50.798;4.358;2023-08-17T07:02:38;8.57;;;4.73;;
7575;SDS011;3829;50.798;4.358;2023-08-17T07:05:03;12.10;;;5.17;;
7575;SDS011;3829;50.798;4.358;2023-08-17T07:07:30;8.20;;;5.07;;
7575;SDS011;3829;50.798;4.358;2023-08-17T07:09:57;7.33;;;3.90;;
7575;SDS011;3829;50.798;4.358;2023-08-17T07:12:23;13.20;;;4.83;;
7575;SDS011;3829;50.798;4.358;2023-08-17T07:14:50;9.10;;;4.90;;
7575;SDS011;3829;50.798;4.358;2023-08-17T07:17:15;10.57;;;4.73;;
7575;SDS011;3829;50.798;4.358;2023-08-17T07:19:41;12.10;;;4.67;;
7575;SDS011;3829;50.798;4.358;2023-08-17T07:22:06;10.97;;;5.50;;
7575;SDS011;3829;50.798;4.358;2023-08-17T07:24:32;7.47;;;5.60;;
7575;SDS011;3829;50.798;4.358;2023-08-17T07:26:58;6.17;;;4.37;;
7575;SDS011;3829;50.798;4.358;2023-08-17T07:29:23;6.53;;;4.10;;
7575;SDS011;3829;50.798;4.358;2023-08-17T07:31:49;12.63;;;5.60;;
7575;SDS011;3829;50.798;4.358;2023-08-17T07:34:14;7.70;;;5.33;;
7575;SDS011;3829;50.798;4.358;2023-08-17T07:36:41;10.13;;;5.03;;
7575;SDS011;3829;50.798;4.358;2023-08-17T07:39:06;13.20;;;5.40;;
7575;SDS011;3829;50.798;4.358;2023-08-17T07:41:32;8.70;;;5.53;;
7575;SDS011;3829;50.798;4.358;2023-08-17T07:43:58;11.57;;;5.70;;
7575;SDS011;3829;50.798;4.358;2023-08-17T07:46:23;9.03;;;5.30;;
7575;SDS011;3829;50.798;4.358;2023-08-17T07:48:49;8.57;;;5.33;;
7575;SDS011;3829;50.798;4.358;2023-08-17T07:51:15;10.60;;;5.37;;
7575;SDS011;3829;50.798;4.358;2023-08-17T07:53:40;13.97;;;5.07;;
7575;SDS011;3829;50.798;4.358;2023-08-17T07:56:06;7.67;;;5.37;;
7575;SDS011;3829;50.798;4.358;2023-08-17T07:58:32;11.27;;;5.17;;
7575;SDS011;3829;50.798;4.358;2023-08-17T08:00:57;11.87;;;5.73;;
7575;SDS011;3829;50.798;4.358;2023-08-17T08:03:23;14.63;;;6.57;;
7575;SDS011;3829;50.798;4.358;2023-08-17T08:05:48;11.87;;;5.50;;
7575;SDS011;3829;50.798;4.358;2023-08-17T08:08:14;12.00;;;6.03;;
7575;SDS011;3829;50.798;4.358;2023-08-17T08:10:42;8.93;;;5.50;;
7575;SDS011;3829;50.798;4.358;2023-08-17T08:13:08;12.00;;;6.47;;
7575;SDS011;3829;50.798;4.358;2023-08-17T08:15:34;16.00;;;7.23;;
7575;SDS011;3829;50.798;4.358;2023-08-17T08:17:59;10.40;;;6.50;;
7575;SDS011;3829;50.798;4.358;2023-08-17T08:20:25;14.63;;;7.43;;
7575;SDS011;3829;50.798;4.358;2023-08-17T08:22:50;17.03;;;7.70;;
7575;SDS011;3829;50.798;4.358;2023-08-17T08:25:16;11.53;;;7.00;;
7575;SDS011;3829;50.798;4.358;2023-08-17T08:27:42;9.20;;;6.20;;
7575;SDS011;3829;50.798;4.358;2023-08-17T08:30:07;16.43;;;7.70;;
7575;SDS011;3829;50.798;4.358;2023-08-17T08:32:33;10.47;;;6.47;;
7575;SDS011;3829;50.798;4.358;2023-08-17T08:34:58;10.57;;;5.97;;
7575;SDS011;3829;50.798;4.358;2023-08-17T08:37:24;10.73;;;6.33;;
7575;SDS011;3829;50.798;4.358;2023-08-17T08:39:51;14.97;;;6.87;;
7575;SDS011;3829;50.798;4.358;2023-08-17T08:42:18;11.40;;;5.83;;
7575;SDS011;3829;50.798;4.358;2023-08-17T08:44:45;15.07;;;7.40;;
7575;SDS011;3829;50.798;4.358;2023-08-17T08:47:12;13.93;;;6.20;;
7575;SDS011;3829;50.798;4.358;2023-08-17T08:49:40;15.77;;;6.00;;
7575;SDS011;3829;50.798;4.358;2023-08-17T08:52:12;12.73;;;6.10;;
7575;SDS011;3829;50.798;4.358;2023-08-17T08:54:44;14.27;;;6.60;;
7575;SDS011;3829;50.798;4.358;2023-08-17T08:57:14;14.53;;;7.10;;
7575;SDS011;3829;50.798;4.358;2023-08-17T08:59:42;16.50;;;7.53;;
7575;SDS011;3829;50.798;4.358;2023-08-17T09:02:14;14.03;;;7.33;;
7575;SDS011;3829;50.798;4.358;2023-08-17T09:04:42;20.43;;;7.63;;
7575;SDS011;3829;50.798;4.358;2023-08-17T09:07:10;15.87;;;7.30;;
7575;SDS011;3829;50.798;4.358;2023-08-17T09:09:38;15.60;;;7.13;;
7575;SDS011;3829;50.798;4.358;2023-08-17T09:12:06;16.23;;;7.97;;
7575;SDS011;3829;50.798;4.358;2023-08-17T09:14:33;11.20;;;8.03;;
7575;SDS011;3829;50.798;4.358;2023-08-17T09:16:58;15.63;;;8.13;;
7575;SDS011;3829;50.798;4.358;2023-08-17T09:19:24;13.60;;;7.57;;
7575;SDS011;3829;50.798;4.358;2023-08-17T09:21:50;12.37;;;8.50;;
7575;SDS011;3829;50.798;4.358;2023-08-17T09:24:16;13.73;;;7.07;;
7575;SDS011;3829;50.798;4.358;2023-08-17T09:26:41;15.00;;;7.47;;
7575;SDS011;3829;50.798;4.358;2023-08-17T09:31:43;14.27;;;7.10;;
7575;SDS011;3829;50.798;4.358;2023-08-17T09:34:10;13.37;;;7.03;;
7575;SDS011;3829;50.798;4.358;2023-08-17T09:36:35;12.83;;;6.90;;
7575;SDS011;3829;50.798;4.358;2023-08-17T09:39:02;12.97;;;7.30;;
7575;SDS011;3829;50.798;4.358;2023-08-17T09:41:28;12.30;;;6.90;;
7575;SDS011;3829;50.798;4.358;2023-08-17T09:43:54;13.53;;;6.70;;
7575;SDS011;3829;50.798;4.358;2023-08-17T09:46:20;11.97;;;7.43;;
7575;SDS011;3829;50.798;4.358;2023-08-17T09:48:46;14.73;;;7.10;;
7575;SDS011;3829;50.798;4.358;2023-08-17T09:51:16;12.13;;;6.60;;
7575;SDS011;3829;50.798;4.358;2023-08-17T09:53:42;13.77;;;7.30;;
7575;SDS011;3829;50.798;4.358;2023-08-17T09:56:08;14.27;;;6.80;;
7575;SDS011;3829;50.798;4.358;2023-08-17T09:58:38;11.30;;;6.77;;
7575;SDS011;3829;50.798;4.358;2023-08-17T10:01:04;10.83;;;6.90;;
7575;SDS011;3829;50.798;4.358;2023-08-17T10:03:32;11.80;;;7.20;;
7575;SDS011;3829;50.798;4.358;2023-08-17T10:06:01;10.43;;;6.90;;
7575;SDS011;3829;50.798;4.358;2023-08-17T10:08:31;12.33;;;7.43;;
7575;SDS011;3829;50.798;4.358;2023-08-17T10:11:01;10.77;;;7.13;;
7575;SDS011;3829;50.798;4.358;2023-08-17T10:13:33;11.23;;;6.90;;
7575;SDS011;3829;50.798;4.358;2023-08-17T10:16:03;13.70;;;6.87;;
7575;SDS011;3829;50.798;4.358;2023-08-17T10:18:45;12.50;;;7.87;;
7575;SDS011;3829;50.798;4.358;2023-08-17T10:21:23;16.33;;;9.33;;
7575;SDS011;3829;50.798;4.358;2023-08-17T10:23:55;14.63;;;8.20;;
7575;SDS011;3829;50.798;4.358;2023-08-17T10:26:21;10.43;;;7.83;;
7575;SDS011;3829;50.798;4.358;2023-08-17T10:28:48;14.63;;;8.70;;
7575;SDS011;3829;50.798;4.358;2023-08-17T10:31:15;17.03;;;9.07;;
7575;SDS011;3829;50.798;4.358;2023-08-17T10:33:41;13.10;;;8.00;;
7575;SDS011;3829;50.798;4.358;2023-08-17T10:36:11;14.63;;;8.70;;
7575;SDS011;3829;50.798;4.358;2023-08-17T10:38:38;14.37;;;8.03;;
7575;SDS011;3829;50.798;4.358;2023-08-17T10:41:08;12.93;;;7.80;;
7575;SDS011;3829;50.798;4.358;2023-08-17T10:46:31;14.83;;;8.10;;
7575;SDS011;3829;50.798;4.358;2023-08-17T10:49:00;14.93;;;8.90;;
7575;SDS011;3829;50.798;4.358;2023-08-17T10:51:31;14.73;;;8.10;;
7575;SDS011;3829;50.798;4.358;2023-08-17T10:53:58;11.67;;;7.33;;
7575;SDS011;3829;50.798;4.358;2023-08-17T10:56:26;18.43;;;7.87;;
7575;SDS011;3829;50.798;4.358;2023-08-17T10:58:53;15.53;;;8.37;;
7575;SDS011;3829;50.798;4.358;2023-08-17T11:06:36;12.17;;;8.50;;
7575;SDS011;3829;50.798;4.358;2023-08-17T11:09:05;16.80;;;9.27;;
7575;SDS011;3829;50.798;4.358;2023-08-17T11:11:32;13.80;;;8.63;;
7575;SDS011;3829;50.798;4.358;2023-08-17T11:13:58;13.20;;;8.20;;
7575;SDS011;3829;50.798;4.358;2023-08-17T11:16:24;15.00;;;9.30;;
7575;SDS011;3829;50.798;4.358;2023-08-17T11:18:49;13.20;;;8.83;;
7575;SDS011;3829;50.798;4.358;2023-08-17T11:21:16;16.20;;;9.23;;
7575;SDS011;3829;50.798;4.358;2023-08-17T11:23:42;13.47;;;9.40;;
7575;SDS011;3829;50.798;4.358;2023-08-17T11:26:08;15.03;;;9.10;;
7575;SDS011;3829;50.798;4.358;2023-08-17T11:28:34;15.67;;;9.33;;
7575;SDS011;3829;50.798;4.358;2023-08-17T11:31:03;19.10;;;10.37;;
7575;SDS011;3829;50.798;4.358;2023-08-17T11:33:31;18.90;;;10.00;;
7575;SDS011;3829;50.798;4.358;2023-08-17T11:35:58;17.87;;;10.77;;
7575;SDS011;3829;50.798;4.358;2023-08-17T11:38:25;16.57;;;9.97;;
7575;SDS011;3829;50.798;4.358;2023-08-17T11:40:52;15.60;;;9.83;;
7575;SDS011;3829;50.798;4.358;2023-08-17T11:43:18;14.03;;;9.07;;
7575;SDS011;3829;50.798;4.358;2023-08-17T11:45:45;14.57;;;9.77;;
7575;SDS011;3829;50.798;4.358;2023-08-17T11:48:11;16.83;;;9.63;;
7575;SDS011;3829;50.798;4.358;2023-08-17T11:50:37;10.87;;;8.23;;
7575;SDS011;3829;50.798;4.358;2023-08-17T11:53:04;12.70;;;9.30;;
7575;SDS011;3829;50.798;4.358;2023-08-17T11:55:30;13.97;;;9.57;;
7575;SDS011;3829;50.798;4.358;2023-08-17T11:57:56;13.57;;;8.43;;
7575;SDS011;3829;50.798;4.358;2023-08-17T12:00:22;14.40;;;8.53;;
7575;SDS011;3829;50.798;4.358;2023-08-17T12:02:49;13.50;;;8.60;;
7575;SDS011;3829;50.798;4.358;2023-08-17T12:05:19;12.83;;;7.80;;
7575;SDS011;3829;50.798;4.358;2023-08-17T12:07:48;11.67;;;7.50;;
7575;SDS011;3829;50.798;4.358;2023-08-17T12:10:14;13.37;;;7.13;;
7575;SDS011;3829;50.798;4.358;2023-08-17T12:12:40;11.03;;;7.60;;
7575;SDS011;3829;50.798;4.358;2023-08-17T12:15:06;9.87;;;6.73;;
7575;SDS011;3829;50.798;4.358;2023-08-17T12:17:32;12.20;;;7.87;;
7575;SDS011;3829;50.798;4.358;2023-08-17T12:19:58;10.03;;;8.07;;
7575;SDS011;3829;50.798;4.358;2023-08-17T12:22:24;12.53;;;8.17;;
7575;SDS011;3829;50.798;4.358;2023-08-17T12:24:51;12.80;;;7.80;;
7575;SDS011;3829;50.798;4.358;2023-08-17T12:27:17;10.60;;;8.50;;
7575;SDS011;3829;50.798;4.358;2023-08-17T12:29:47;11.03;;;8.13;;
7575;SDS011;3829;50.798;4.358;2023-08-17T12:32:14;12.27;;;7.40;;
7575;SDS011;3829;50.798;4.358;2023-08-17T12:34:41;10.13;;;7.10;;
7575;SDS011;3829;50.798;4.358;2023-08-17T12:37:08;12.00;;;7.33;;
7575;SDS011;3829;50.798;4.358;2023-08-17T12:39:35;9.00;;;6.97;;
7575;SDS011;3829;50.798;4.358;2023-08-17T12:42:01;9.23;;;7.73;;
7575;SDS011;3829;50.798;4.358;2023-08-17T12:44:27;10.73;;;8.63;;
7575;SDS011;3829;50.798;4.358;2023-08-17T12:46:53;11.87;;;7.97;;
7575;SDS011;3829;50.798;4.358;2023-08-17T12:49:18;9.47;;;7.73;;
7575;SDS011;3829;50.798;4.358;2023-08-17T12:51:44;11.73;;;8.20;;
7575;SDS011;3829;50.798;4.358;2023-08-17T12:54:09;9.97;;;7.83;;
7575;SDS011;3829;50.798;4.358;2023-08-17T12:56:35;12.73;;;9.30;;
7575;SDS011;3829;50.798;4.358;2023-08-17T12:59:00;12.27;;;9.07;;
7575;SDS011;3829;50.798;4.358;2023-08-17T13:01:26;14.37;;;10.57;;
7575;SDS011;3829;50.798;4.358;2023-08-17T13:03:52;11.80;;;9.43;;
7575;SDS011;3829;50.798;4.358;2023-08-17T13:06:17;15.57;;;10.03;;
7575;SDS011;3829;50.798;4.358;2023-08-17T13:08:43;14.27;;;10.00;;
7575;SDS011;3829;50.798;4.358;2023-08-17T13:11:10;12.50;;;8.90;;
7575;SDS011;3829;50.798;4.358;2023-08-17T13:13:35;12.13;;;8.93;;
7575;SDS011;3829;50.798;4.358;2023-08-17T13:16:01;14.80;;;10.30;;
7575;SDS011;3829;50.798;4.358;2023-08-17T13:18:27;13.60;;;10.33;;
7575;SDS011;3829;50.798;4.358;2023-08-17T13:20:53;15.73;;;9.73;;
7575;SDS011;3829;50.798;4.358;2023-08-17T13:23:19;13.87;;;8.90;;
7575;SDS011;3829;50.798;4.358;2023-08-17T13:25:45;16.93;;;9.47;;
7575;SDS011;3829;50.798;4.358;2023-08-17T13:28:11;16.13;;;11.47;;
7575;SDS011;3829;50.798;4.358;2023-08-17T13:30:37;16.23;;;10.33;;
7575;SDS011;3829;50.798;4.358;2023-08-17T13:33:04;16.33;;;10.43;;
7575;SDS011;3829;50.798;4.358;2023-08-17T13:35:31;15.63;;;10.03;;
7575;SDS011;3829;50.798;4.358;2023-08-17T13:37:57;13.57;;;9.53;;
7575;SDS011;3829;50.798;4.358;2023-08-17T13:40:23;14.40;;;10.00;;
7575;SDS011;3829;50.798;4.358;2023-08-17T13:42:49;19.33;;;9.83;;
7575;SDS011;3829;50.798;4.358;2023-08-17T13:45:14;16.10;;;11.10;;
7575;SDS011;3829;50.798;4.358;2023-08-17T13:47:40;16.37;;;10.90;;
7575;SDS011;3829;50.798;4.358;2023-08-17T13:50:06;15.83;;;10.93;;
7575;SDS011;3829;50.798;4.358;2023-08-17T13:52:32;15.27;;;10.80;;
7575;SDS011;3829;50.798;4.358;2023-08-17T13:54:57;15.80;;;11.87;;
7575;SDS011;3829;50.798;4.358;2023-08-17T13:57:23;15.43;;;10.63;;
7575;SDS011;3829;50.798;4.358;2023-08-17T13:59:49;20.00;;;12.63;;
7575;SDS011;3829;50.798;4.358;2023-08-17T14:02:14;18.10;;;12.43;;
7575;SDS011;3829;50.798;4.358;2023-08-17T14:04:40;17.73;;;12.17;;
7575;SDS011;3829;50.798;4.358;2023-08-17T14:07:05;19.67;;;11.90;;
7575;SDS011;3829;50.798;4.358;2023-08-17T14:09:31;15.77;;;12.07;;
7575;SDS011;3829;50.798;4.358;2023-08-17T14:11:57;15.27;;;11.97;;
7575;SDS011;3829;50.798;4.358;2023-08-17T14:14:22;16.13;;;11.33;;
7575;SDS011;3829;50.798;4.358;2023-08-17T14:16:48;18.47;;;12.90;;
7575;SDS011;3829;50.798;4.358;2023-08-17T14:19:13;19.03;;;13.57;;
7575;SDS011;3829;50.798;4.358;2023-08-17T14:21:39;16.83;;;12.70;;
7575;SDS011;3829;50.798;4.358;2023-08-17T14:24:04;19.30;;;13.50;;
7575;SDS011;3829;50.798;4.358;2023-08-17T14:26:32;18.07;;;12.50;;
7575;SDS011;3829;50.798;4.358;2023-08-17T14:28:57;18.27;;;12.33;;
7575;SDS011;3829;50.798;4.358;2023-08-17T14:31:23;21.23;;;12.60;;
7575;SDS011;3829;50.798;4.358;2023-08-17T14:33:49;17.33;;;10.97;;
7575;SDS011;3829;50.798;4.358;2023-08-17T14:36:15;18.60;;;12.73;;
7575;SDS011;3829;50.798;4.358;2023-08-17T14:38:41;17.83;;;12.10;;
7575;SDS011;3829;50.798;4.358;2023-08-17T14:41:07;18.43;;;12.50;;
7575;SDS011;3829;50.798;4.358;2023-08-17T14:43:34;17.50;;;12.03;;
7575;SDS011;3829;50.798;4.358;2023-08-17T14:46:00;22.27;;;14.03;;
7575;SDS011;3829;50.798;4.358;2023-08-17T14:48:25;15.70;;;12.67;;
7575;SDS011;3829;50.798;4.358;2023-08-17T14:50:51;15.30;;;11.53;;
7575;SDS011;3829;50.798;4.358;2023-08-17T14:53:17;15.87;;;12.23;;
7575;SDS011;3829;50.798;4.358;2023-08-17T14:55:42;15.37;;;10.93;;
7575;SDS011;3829;50.798;4.358;2023-08-17T14:58:08;18.03;;;11.63;;
7575;SDS011;3829;50.798;4.358;2023-08-17T15:00:33;18.87;;;11.37;;
7575;SDS011;3829;50.798;4.358;2023-08-17T15:02:59;19.70;;;11.90;;
7575;SDS011;3829;50.798;4.358;2023-08-17T15:05:25;16.93;;;11.83;;
7575;SDS011;3829;50.798;4.358;2023-08-17T15:07:51;16.90;;;13.17;;
7575;SDS011;3829;50.798;4.358;2023-08-17T15:10:17;17.50;;;12.83;;
7575;SDS011;3829;50.798;4.358;2023-08-17T15:12:43;17.10;;;12.23;;